createdAt,value
2022-08-22T00:02:19.825Z,18.83
2022-08-22T00:03:04.030Z,22.52
2022-08-22T00:04:56.816Z,18.84
2022-08-22T00:07:37.025Z,18.84
2022-08-22T00:10:12.088Z,18.86
2022-08-22T00:13:01.845Z,18.86
2022-08-22T00:15:43.071Z,18.84
2022-08-22T00:18:17.191Z,18.83
2022-08-22T00:20:50.169Z,18.79
2022-08-22T00:23:24.008Z,18.77
2022-08-22T00:25:58.966Z,18.75
2022-08-22T00:28:35.567Z,18.73
2022-08-22T00:31:15.529Z,18.73
2022-08-22T00:33:49.119Z,18.76
2022-08-22T00:36:25.502Z,18.77
2022-08-22T00:39:00.006Z,18.77
2022-08-22T00:42:10.471Z,18.84
2022-08-22T00:45:14.783Z,18.87
2022-08-22T00:47:57.857Z,18.88
2022-08-22T00:50:44.298Z,18.88
2022-08-22T00:53:37.649Z,18.88
2022-08-22T00:56:50.882Z,18.88
2022-08-22T00:59:39.023Z,18.83
2022-08-22T01:02:21.896Z,18.85
2022-08-22T01:05:17.955Z,18.87
2022-08-22T01:08:03.995Z,18.85
2022-08-22T01:10:50.986Z,18.82
2022-08-22T01:13:35.002Z,18.79
2022-08-22T01:16:21.171Z,18.80
2022-08-22T01:19:23.146Z,18.77
2022-08-22T01:22:24.771Z,18.77
2022-08-22T01:25:33.809Z,18.76
2022-08-22T01:28:27.311Z,18.74
2022-08-22T01:31:46.815Z,18.73
2022-08-22T01:34:57.860Z,18.71
2022-08-22T01:37:48.818Z,18.68
2022-08-22T01:40:53.975Z,18.66
2022-08-22T01:43:59.994Z,18.63
2022-08-22T01:46:35.952Z,18.58
2022-08-22T01:49:13.757Z,18.56
2022-08-22T01:51:47.693Z,18.54
2022-08-22T01:54:30.994Z,18.48
2022-08-22T01:57:03.148Z,18.46
2022-08-22T01:59:42.318Z,18.43
2022-08-22T02:02:38.529Z,18.40
2022-08-22T02:05:20.501Z,18.39
2022-08-22T02:07:58.598Z,18.34
2022-08-22T02:10:48.157Z,18.26
2022-08-22T02:13:34.466Z,18.24
2022-08-22T02:16:12.241Z,18.21
2022-08-22T02:18:57.944Z,18.15
2022-08-22T02:21:40.579Z,18.12
2022-08-22T02:24:24.871Z,18.10
2022-08-22T02:27:06.097Z,18.06
2022-08-22T02:29:41.529Z,18.02
2022-08-22T02:32:19.980Z,17.95
2022-08-22T02:34:59.542Z,17.89
2022-08-22T02:37:35.812Z,17.84
2022-08-22T02:40:11.224Z,17.77
2022-08-22T02:42:44.955Z,17.70
2022-08-22T02:45:38.917Z,17.61
2022-08-22T02:48:15.817Z,17.57
2022-08-22T02:50:52.691Z,17.51
2022-08-22T02:53:29.568Z,17.48
2022-08-22T02:56:03.174Z,17.46
2022-08-22T02:58:43.495Z,17.41
2022-08-22T03:01:34.403Z,17.38
2022-08-22T03:04:23.522Z,17.32
2022-08-22T03:07:09.097Z,17.28
2022-08-22T03:09:41.154Z,17.24
2022-08-22T03:12:22.310Z,17.22
2022-08-22T03:14:59.384Z,17.18
2022-08-22T03:17:32.588Z,17.14
2022-08-22T03:20:07.147Z,17.12
2022-08-22T03:22:45.766Z,17.06
2022-08-22T03:25:26.977Z,17.03
2022-08-22T03:28:00.514Z,17.01
2022-08-22T03:30:38.667Z,16.98
2022-08-22T03:33:19.676Z,16.96
2022-08-22T03:36:04.974Z,16.93
2022-08-22T03:38:47.788Z,16.90
2022-08-22T03:41:39.252Z,16.83
2022-08-22T03:44:54.066Z,16.80
2022-08-22T03:47:51.759Z,16.75
2022-08-22T03:50:55.108Z,16.74
2022-08-22T03:53:37.820Z,16.68
2022-08-22T03:56:40.773Z,16.67
2022-08-22T03:59:42.529Z,16.67
2022-08-22T04:02:42.845Z,16.60
2022-08-22T04:05:34.633Z,16.60
2022-08-22T04:08:31.776Z,16.57
2022-08-22T04:11:41.296Z,16.57
2022-08-22T04:14:26.324Z,16.51
2022-08-22T04:17:13.005Z,16.51
2022-08-22T04:20:06.316Z,16.48
2022-08-22T04:22:53.728Z,16.46
2022-08-22T04:25:25.561Z,16.40
2022-08-22T04:27:59.534Z,16.38
2022-08-22T04:30:34.383Z,16.32
2022-08-22T04:33:09.729Z,16.32
2022-08-22T04:35:44.032Z,16.32
2022-08-22T04:38:17.897Z,16.35
2022-08-22T04:40:51.532Z,16.41
2022-08-22T04:43:25.592Z,16.49
2022-08-22T04:45:58.881Z,16.50
2022-08-22T04:48:33.575Z,16.44
2022-08-22T04:51:11.333Z,16.50
2022-08-22T04:54:03.398Z,16.56
2022-08-22T04:56:39.949Z,16.66
2022-08-22T04:59:12.216Z,16.70
2022-08-22T05:01:44.360Z,16.78
2022-08-22T05:04:17.482Z,16.80
2022-08-22T05:06:51.615Z,16.84
2022-08-22T05:09:25.691Z,16.85
2022-08-22T05:11:58.055Z,16.88
2022-08-22T05:14:34.745Z,16.92
2022-08-22T05:17:04.365Z,16.91
2022-08-22T05:19:35.793Z,16.88
2022-08-22T05:22:07.805Z,16.85
2022-08-22T05:24:40.523Z,16.86
2022-08-22T05:27:12.478Z,16.87
2022-08-22T05:29:43.580Z,16.84
2022-08-22T05:32:18.669Z,16.85
2022-08-22T05:34:48.949Z,16.86
2022-08-22T05:37:27.087Z,16.88
2022-08-22T05:39:59.267Z,16.89
2022-08-22T05:42:31.653Z,16.95
2022-08-22T05:45:03.064Z,16.97
2022-08-22T05:47:37.667Z,17.04
2022-08-22T05:50:09.864Z,17.08
2022-08-22T05:52:54.845Z,17.16
2022-08-22T05:55:28.081Z,17.23
2022-08-22T05:58:13.847Z,17.32
2022-08-22T06:00:48.348Z,17.43
2022-08-22T06:03:25.253Z,17.51
2022-08-22T06:05:57.459Z,17.57
2022-08-22T06:08:36.207Z,17.63
2022-08-22T06:11:09.218Z,17.72
2022-08-22T06:13:41.397Z,17.80
2022-08-22T06:16:16.899Z,17.91
2022-08-22T06:18:46.385Z,18.01
2022-08-22T06:21:21.377Z,18.12
2022-08-22T06:23:56.660Z,18.24
2022-08-22T06:26:26.658Z,18.33
2022-08-22T06:28:59.064Z,18.42
2022-08-22T06:31:31.876Z,18.52
2022-08-22T06:34:04.381Z,18.61
2022-08-22T06:36:35.838Z,18.70
2022-08-22T06:39:15.723Z,18.79
2022-08-22T06:41:50.886Z,18.87
2022-08-22T06:44:23.133Z,18.96
2022-08-22T06:46:54.702Z,19.04
2022-08-22T06:49:24.635Z,19.12
2022-08-22T06:51:54.770Z,19.20
2022-08-22T06:54:32.496Z,19.29
2022-08-22T06:57:07.655Z,19.41
2022-08-22T06:59:39.349Z,19.49
2022-08-22T07:02:17.476Z,19.60
2022-08-22T07:04:49.710Z,19.70
2022-08-22T07:07:20.769Z,19.82
2022-08-22T07:09:55.424Z,19.92
2022-08-22T07:12:29.711Z,20.03
2022-08-22T07:15:12.130Z,20.15
2022-08-22T07:17:50.589Z,20.26
2022-08-22T07:20:25.521Z,20.37
2022-08-22T07:22:58.193Z,20.47
2022-08-22T07:25:29.013Z,20.57
2022-08-22T07:28:16.320Z,20.66
2022-08-22T07:30:56.410Z,20.74
2022-08-22T07:33:42.409Z,20.84
2022-08-22T07:36:23.233Z,20.92
2022-08-22T07:39:11.223Z,21.03
2022-08-22T07:41:52.624Z,21.16
2022-08-22T07:44:25.412Z,21.25
2022-08-22T07:47:00.311Z,21.37
2022-08-22T07:49:31.651Z,21.52
2022-08-22T07:52:03.812Z,21.68
2022-08-22T07:54:38.657Z,21.84
2022-08-22T07:57:13.993Z,21.96
2022-08-22T07:59:48.364Z,22.12
2022-08-22T08:02:19.604Z,22.23
2022-08-22T08:04:50.293Z,22.34
2022-08-22T08:07:22.270Z,22.49
2022-08-22T08:09:54.286Z,22.63
2022-08-22T08:12:31.812Z,22.75
2022-08-22T08:15:01.082Z,22.89
2022-08-22T08:17:35.396Z,22.97
2022-08-22T08:20:09.829Z,23.08
2022-08-22T08:22:39.463Z,23.12
2022-08-22T08:25:09.275Z,23.21
2022-08-22T08:27:57.490Z,23.27
2022-08-22T08:30:37.598Z,23.38
2022-08-22T08:33:24.236Z,23.49
2022-08-22T08:36:02.592Z,23.65
2022-08-22T08:38:36.855Z,23.76
2022-08-22T08:41:41.431Z,23.85
2022-08-22T08:44:27.094Z,23.91
2022-08-22T08:47:17.113Z,23.99
2022-08-22T08:50:17.446Z,24.10
2022-08-22T08:53:03.430Z,24.18
2022-08-22T08:55:44.902Z,24.16
2022-08-22T08:58:34.147Z,24.24
2022-08-22T09:01:29.627Z,24.42
2022-08-22T09:04:31.825Z,24.54
2022-08-22T09:07:32.986Z,24.69
2022-08-22T09:10:29.540Z,24.76
2022-08-22T09:13:14.641Z,24.81
2022-08-22T09:16:04.969Z,24.88
2022-08-22T09:18:57.854Z,25.01
2022-08-22T09:22:00.019Z,25.11
2022-08-22T09:25:16.127Z,25.21
2022-08-22T09:27:52.818Z,25.30
2022-08-22T09:30:28.764Z,25.39
2022-08-22T09:33:00.876Z,25.52
2022-08-22T09:35:44.710Z,25.62
2022-08-22T09:38:27.562Z,25.69
2022-08-22T09:41:06.963Z,25.79
2022-08-22T09:43:44.211Z,25.89
2022-08-22T09:46:22.363Z,25.95
2022-08-22T09:49:05.496Z,26.11
2022-08-22T09:51:42.807Z,26.32
2022-08-22T09:54:18.713Z,26.42
2022-08-22T09:56:57.531Z,26.47
2022-08-22T09:59:49.349Z,26.57
2022-08-22T10:02:29.639Z,26.72
2022-08-22T10:05:08.443Z,26.79
2022-08-22T10:08:07.212Z,26.93
2022-08-22T10:11:01.943Z,26.98
2022-08-22T10:13:57.248Z,27.09
2022-08-22T10:16:34.151Z,27.21
2022-08-22T10:19:16.577Z,27.28
2022-08-22T10:22:06.312Z,27.39
2022-08-22T10:24:46.272Z,27.47
2022-08-22T10:27:20.380Z,27.50
2022-08-22T10:30:04.726Z,27.67
2022-08-22T10:32:39.850Z,27.83
2022-08-22T10:35:20.958Z,27.91
2022-08-22T10:37:57.638Z,27.98
2022-08-22T10:40:33.176Z,28.05
2022-08-22T10:43:12.299Z,28.09
2022-08-22T10:45:44.710Z,28.25
2022-08-22T10:48:35.566Z,28.31
2022-08-22T10:51:12.716Z,28.31
2022-08-22T10:53:55.913Z,28.15
2022-08-22T10:56:30.461Z,27.92
2022-08-22T10:59:09.566Z,27.95
2022-08-22T11:01:48.238Z,28.07
2022-08-22T11:04:30.470Z,27.86
2022-08-22T11:07:15.249Z,27.68
2022-08-22T11:09:44.741Z,27.56
2022-08-22T11:12:23.421Z,27.51
2022-08-22T11:15:10.572Z,27.56
2022-08-22T11:18:21.779Z,27.82
2022-08-22T11:21:00.191Z,28.18
2022-08-22T11:23:41.936Z,28.51
2022-08-22T11:26:46.659Z,28.80
2022-08-22T11:29:27.764Z,29.03
2022-08-22T11:32:07.785Z,29.25
2022-08-22T11:34:47.880Z,29.49
2022-08-22T11:37:43.390Z,29.63
2022-08-22T11:40:25.751Z,29.77
2022-08-22T11:43:03.177Z,29.91
2022-08-22T11:45:40.802Z,30.01
2022-08-22T11:48:17.695Z,30.11
2022-08-22T11:50:51.339Z,30.16
2022-08-22T11:53:27.535Z,30.29
2022-08-22T11:56:10.429Z,30.44
2022-08-22T11:58:51.132Z,30.56
2022-08-22T12:01:35.401Z,30.49
2022-08-22T12:04:12.951Z,30.29
2022-08-22T12:07:01.861Z,30.23
2022-08-22T12:09:47.809Z,30.23
2022-08-22T12:12:27.669Z,30.43
2022-08-22T12:15:02.175Z,30.81
2022-08-22T12:18:04.405Z,31.13
2022-08-22T12:20:54.380Z,31.16
2022-08-22T12:23:49.195Z,30.83
2022-08-22T12:26:27.998Z,30.53
2022-08-22T12:29:15.470Z,30.33
2022-08-22T12:32:20.630Z,30.17
2022-08-22T12:35:16.886Z,30.48
2022-08-22T12:37:56.586Z,30.84
2022-08-22T12:40:38.226Z,31.11
2022-08-22T12:43:32.370Z,31.32
2022-08-22T12:46:20.656Z,31.33
2022-08-22T12:49:07.667Z,31.51
2022-08-22T12:51:58.097Z,31.45
2022-08-22T12:54:59.326Z,30.94
2022-08-22T12:57:42.952Z,30.93
2022-08-22T13:00:26.757Z,31.13
2022-08-22T13:02:56.862Z,31.11
2022-08-22T13:05:30.601Z,31.04
2022-08-22T13:08:07.702Z,30.90
2022-08-22T13:10:47.881Z,30.78
2022-08-22T13:13:36.446Z,30.80
2022-08-22T13:16:11.689Z,31.16
2022-08-22T13:18:46.584Z,31.72
2022-08-22T13:21:31.440Z,32.08
2022-08-22T13:24:10.832Z,32.55
2022-08-22T13:26:49.369Z,32.95
2022-08-22T13:29:27.112Z,33.25
2022-08-22T13:32:00.236Z,33.46
2022-08-22T13:34:47.785Z,33.56
2022-08-22T13:37:24.459Z,33.38
2022-08-22T13:40:01.773Z,33.15
2022-08-22T13:42:33.528Z,33.03
2022-08-22T13:45:05.713Z,32.87
2022-08-22T13:47:39.321Z,32.53
2022-08-22T13:50:13.949Z,32.15
2022-08-22T13:52:49.401Z,31.98
2022-08-22T13:55:36.537Z,31.66
2022-08-22T13:58:11.404Z,31.46
2022-08-22T14:01:18.745Z,31.38
2022-08-22T14:03:50.992Z,31.12
2022-08-22T14:06:37.666Z,31.03
2022-08-22T14:09:17.585Z,31.34
2022-08-22T14:12:12.061Z,31.93
2022-08-22T14:14:46.495Z,32.59
2022-08-22T14:17:22.196Z,32.82
2022-08-22T14:19:59.505Z,32.43
2022-08-22T14:22:35.347Z,32.18
2022-08-22T14:25:10.404Z,31.95
2022-08-22T14:27:58.007Z,31.94
2022-08-22T14:30:29.574Z,32.40
2022-08-22T14:33:05.083Z,32.91
2022-08-22T14:35:38.205Z,33.52
2022-08-22T14:38:30.282Z,34.08
2022-08-22T14:41:03.306Z,34.44
2022-08-22T14:43:50.703Z,34.81
2022-08-22T14:46:26.557Z,35.05
2022-08-22T14:49:14.481Z,34.96
2022-08-22T14:51:50.883Z,35.28
2022-08-22T14:54:22.655Z,35.68
2022-08-22T14:56:59.348Z,35.86
2022-08-22T14:59:38.979Z,35.60
2022-08-22T15:02:11.351Z,35.58
2022-08-22T15:04:42.042Z,35.89
2022-08-22T15:07:11.741Z,36.27
2022-08-22T15:09:44.304Z,35.87
2022-08-22T15:12:24.898Z,35.22
2022-08-22T15:14:57.121Z,34.70
2022-08-22T15:17:44.201Z,34.37
2022-08-22T15:20:35.386Z,34.24
2022-08-22T15:23:10.392Z,34.30
2022-08-22T15:25:41.742Z,34.64
2022-08-22T15:28:20.741Z,34.54
2022-08-22T15:31:03.800Z,34.42
2022-08-22T15:33:37.821Z,34.42
2022-08-22T15:36:15.664Z,34.67
2022-08-22T15:38:49.987Z,35.17
2022-08-22T15:41:38.324Z,35.75
2022-08-22T15:44:14.977Z,35.92
2022-08-22T15:47:31.505Z,36.41
2022-08-22T15:50:06.017Z,36.25
2022-08-22T15:53:05.006Z,35.78
2022-08-22T15:55:35.428Z,36.11
2022-08-22T15:58:09.907Z,36.54
2022-08-22T16:00:47.487Z,36.82
2022-08-22T16:03:32.091Z,37.25
2022-08-22T16:06:04.272Z,37.77
2022-08-22T16:08:49.800Z,38.16
2022-08-22T16:11:32.976Z,38.42
2022-08-22T16:14:24.083Z,38.64
2022-08-22T16:17:02.274Z,38.83
2022-08-22T16:19:33.867Z,37.73
2022-08-22T16:22:13.433Z,37.89
2022-08-22T16:25:11.704Z,39.57
2022-08-22T16:27:55.487Z,41.12
2022-08-22T16:30:39.566Z,42.20
2022-08-22T16:33:14.845Z,42.28
2022-08-22T16:36:25.990Z,41.26
2022-08-22T16:38:57.921Z,40.71
2022-08-22T16:41:35.461Z,40.32
2022-08-22T16:44:15.897Z,40.08
2022-08-22T16:46:47.829Z,39.82
2022-08-22T16:49:27.534Z,39.62
2022-08-22T16:52:29.027Z,39.42
2022-08-22T16:55:06.626Z,38.88
2022-08-22T16:57:59.326Z,38.74
2022-08-22T17:00:41.314Z,38.54
2022-08-22T17:03:18.135Z,38.21
2022-08-22T17:05:57.242Z,37.98
2022-08-22T17:08:55.385Z,37.44
2022-08-22T17:11:34.210Z,37.23
2022-08-22T17:14:17.484Z,36.58
2022-08-22T17:16:57.172Z,35.75
2022-08-22T17:19:39.229Z,34.97
2022-08-22T17:22:18.638Z,34.25
2022-08-22T17:24:55.137Z,33.76
2022-08-22T17:27:34.957Z,33.27
2022-08-22T17:30:09.192Z,32.81
2022-08-22T17:32:59.089Z,32.44
2022-08-22T17:35:45.029Z,31.98
2022-08-22T17:38:25.560Z,31.56
2022-08-22T17:41:02.482Z,31.28
2022-08-22T17:43:56.106Z,30.90
2022-08-22T17:46:42.506Z,30.62
2022-08-22T17:49:20.820Z,30.39
2022-08-22T17:51:55.963Z,30.19
2022-08-22T17:54:32.735Z,30.06
2022-08-22T17:57:06.353Z,29.88
2022-08-22T17:59:57.688Z,29.69
2022-08-22T18:02:33.245Z,29.44
2022-08-22T18:05:07.135Z,29.17
2022-08-22T18:07:53.875Z,28.96
2022-08-22T18:10:31.481Z,28.76
2022-08-22T18:13:07.438Z,28.59
2022-08-22T18:15:46.020Z,28.40
2022-08-22T18:18:24.859Z,28.22
2022-08-22T18:21:02.469Z,28.03
2022-08-22T18:23:40.143Z,27.84
2022-08-22T18:26:21.533Z,27.66
2022-08-22T18:28:55.877Z,27.49
2022-08-22T18:31:47.368Z,27.31
2022-08-22T18:34:28.825Z,27.12
2022-08-22T18:37:03.409Z,26.97
2022-08-22T18:39:40.782Z,26.82
2022-08-22T18:42:19.100Z,26.68
2022-08-22T18:44:47.086Z,26.56
2022-08-22T18:47:20.226Z,26.46
2022-08-22T18:49:54.153Z,26.32
2022-08-22T18:52:43.067Z,26.20
2022-08-22T18:55:50.634Z,26.07
2022-08-22T18:58:42.331Z,25.97
2022-08-22T19:01:44.338Z,25.83
2022-08-22T19:04:30.402Z,25.73
2022-08-22T19:07:17.311Z,25.60
2022-08-22T19:10:20.558Z,25.47
2022-08-22T19:13:07.968Z,25.33
2022-08-22T19:15:50.600Z,25.21
2022-08-22T19:18:37.207Z,25.12
2022-08-22T19:21:35.850Z,25.02
2022-08-22T19:24:08.898Z,24.90
2022-08-22T19:26:41.153Z,24.81
2022-08-22T19:29:44.551Z,24.73
2022-08-22T19:32:33.603Z,24.61
2022-08-22T19:35:20.154Z,24.54
2022-08-22T19:37:57.675Z,24.45
2022-08-22T19:41:04.358Z,24.41
2022-08-22T19:43:36.748Z,24.32
2022-08-22T19:46:08.122Z,24.23
2022-08-22T19:48:45.444Z,24.13
2022-08-22T19:51:24.677Z,24.04
2022-08-22T19:54:16.507Z,23.95
2022-08-22T19:57:06.825Z,23.85
2022-08-22T19:59:50.746Z,23.79
2022-08-22T20:02:31.817Z,23.73
2022-08-22T20:05:25.341Z,23.65
2022-08-22T20:08:15.289Z,23.62
2022-08-22T20:10:58.563Z,23.57
2022-08-22T20:13:29.184Z,23.55
2022-08-22T20:16:16.059Z,23.53
2022-08-22T20:19:16.558Z,23.45
2022-08-22T20:21:50.377Z,23.40
2022-08-22T20:24:25.984Z,23.36
2022-08-22T20:27:13.478Z,23.32
2022-08-22T20:29:49.064Z,23.28
2022-08-22T20:32:21.121Z,23.23
2022-08-22T20:34:54.417Z,23.19
2022-08-22T20:37:40.419Z,23.17
2022-08-22T20:40:53.272Z,23.13
2022-08-22T20:43:28.423Z,23.08
2022-08-22T20:46:08.197Z,23.01
2022-08-22T20:48:44.062Z,22.98
2022-08-22T20:51:16.528Z,22.93
2022-08-22T20:53:52.816Z,22.86
2022-08-22T20:56:34.693Z,22.81
2022-08-22T20:59:16.758Z,22.78
2022-08-22T21:01:46.494Z,22.72
2022-08-22T21:04:18.768Z,22.73
2022-08-22T21:06:46.758Z,22.77
2022-08-22T21:09:36.210Z,22.73
2022-08-22T21:12:09.195Z,22.74
2022-08-22T21:14:45.864Z,22.70
2022-08-22T21:17:20.177Z,22.69
2022-08-22T21:19:50.480Z,22.70
2022-08-22T21:22:25.491Z,22.71
2022-08-22T21:24:56.546Z,22.68
2022-08-22T21:27:29.762Z,22.71
2022-08-22T21:30:01.120Z,22.68
2022-08-22T21:32:34.974Z,22.71
2022-08-22T21:35:04.812Z,22.75
2022-08-22T21:37:39.682Z,22.78
2022-08-22T21:40:16.909Z,22.86
2022-08-22T21:42:59.399Z,22.95
2022-08-22T21:45:32.449Z,23.04
2022-08-22T21:48:00.752Z,23.11
2022-08-22T21:50:38.082Z,23.17
2022-08-22T21:53:12.059Z,23.19
2022-08-22T21:55:44.242Z,23.19
2022-08-22T21:58:36.613Z,23.23
2022-08-22T22:01:28.609Z,23.28
2022-08-22T22:03:57.681Z,23.35
2022-08-22T22:06:26.542Z,23.34
2022-08-22T22:08:55.133Z,23.40
2022-08-22T22:11:23.457Z,23.60
2022-08-22T22:13:51.494Z,23.51
2022-08-22T22:16:25.679Z,23.55
2022-08-22T22:18:55.075Z,23.55
2022-08-22T22:21:25.377Z,23.56
2022-08-22T22:23:53.613Z,23.57
2022-08-22T22:26:26.962Z,23.60
2022-08-22T22:28:54.963Z,23.64
2022-08-22T22:31:22.870Z,23.71
2022-08-22T22:33:53.187Z,23.66
2022-08-22T22:36:26.473Z,23.71
2022-08-22T22:38:55.085Z,23.74
2022-08-22T22:41:25.384Z,23.70
2022-08-22T22:43:53.878Z,23.76
2022-08-22T22:46:22.131Z,23.71
2022-08-22T22:48:50.516Z,23.68
2022-08-22T22:51:18.486Z,23.63
2022-08-22T22:53:48.091Z,23.60
2022-08-22T22:56:21.258Z,23.56
2022-08-22T22:58:59.222Z,23.50
2022-08-22T23:02:00.455Z,23.52
2022-08-22T23:04:29.079Z,23.54
2022-08-22T23:07:00.217Z,23.49
2022-08-22T23:09:38.781Z,23.52
2022-08-22T23:12:13.759Z,23.52
2022-08-22T23:14:42.489Z,23.56
2022-08-22T23:17:10.695Z,23.57
2022-08-22T23:19:39.170Z,23.54
2022-08-22T23:22:08.069Z,23.58
2022-08-22T23:24:39.833Z,23.59
2022-08-22T23:27:09.316Z,23.65
2022-08-22T23:29:38.432Z,23.68
2022-08-22T23:32:06.793Z,23.69
2022-08-22T23:34:37.226Z,23.70
2022-08-22T23:37:07.750Z,23.72
2022-08-22T23:39:38.133Z,23.77
2022-08-22T23:42:07.866Z,23.76
2022-08-22T23:44:38.322Z,23.84
2022-08-22T23:47:08.263Z,23.87
2022-08-22T23:49:37.440Z,23.85
2022-08-22T23:52:09.239Z,23.87
2022-08-22T23:54:38.658Z,23.84
2022-08-22T23:57:11.811Z,23.78
2022-08-22T23:59:48.422Z,23.74
